Time;durP1;ratioP1;P1;durP2;ratioP2;P2;SDS_P1;SDS_P2;PMS_P1;PMS_P2;Temp;Humidity;BMP_temperature;BMP_pressure;BME280_temperature;BME280_humidity;BME280_pressure;Samples;Min_cycle;Max_cycle;Signal;HPM_P1;HPM_P2
2022/06/04 00:02:19;;;;;;;22.30;9.90;;;;;;;16.30;46.11;99213.49;106106;1274;95237;-68
2022/06/04 00:04:50;;;;;;;24.20;10.50;;;;;;;16.26;46.26;99217.06;106119;1274;108320;-68
2022/06/04 00:07:21;;;;;;;19.90;9.90;;;;;;;16.21;46.28;99218.54;105963;1274;98747;-70
2022/06/04 00:15:32;;;;;;;20.40;9.30;;;;;;;16.11;46.68;99201.13;106092;1274;97886;-69
2022/06/04 00:18:06;;;;;;;24.70;10.20;;;;;;;16.05;46.71;99198.54;106109;1274;108018;-69
2022/06/04 00:20:34;;;;;;;22.30;10.20;;;;;;;16.00;46.77;99200.35;105846;1276;97887;-68
2022/06/04 00:23:06;;;;;;;24.10;11.00;;;;;;;15.96;46.86;99199.11;105873;1276;98095;-68
2022/06/04 00:25:40;;;;;;;21.40;10.20;;;;;;;15.92;47.08;99193.86;105851;1276;114135;-66
2022/06/04 00:28:09;;;;;;;;;;;;;;;15.88;47.13;99192.79;105871;1277;97928;-67
2022/06/04 00:30:40;;;;;;;23.60;11.90;;;;;;;15.82;47.39;99186.17;105829;1276;107414;-67
2022/06/04 00:33:10;;;;;;;23.30;11.20;;;;;;;15.81;47.33;99184.92;105815;1276;97963;-68
2022/06/04 00:35:40;;;;;;;23.00;11.00;;;;;;;15.78;47.38;99188.86;106022;1274;97986;-67
2022/06/04 00:38:08;;;;;;;26.60;12.00;;;;;;;15.76;47.46;99185.66;105994;1274;112294;-69
2022/06/04 00:40:44;;;;;;;24.10;11.10;;;;;;;15.75;47.56;99186.06;106095;1276;95271;-69
2022/06/04 00:43:17;;;;;;;21.90;11.20;;;;;;;15.74;47.68;99185.64;106110;1274;107658;-68
2022/06/04 00:46:23;;;;;;;26.90;12.80;;;;;;;15.73;47.71;99186.85;106024;1274;98545;-68
2022/06/04 00:48:51;;;;;;;22.90;10.90;;;;;;;15.71;47.93;99187.71;106028;1276;97919;-69
2022/06/04 00:51:20;;;;;;;23.90;11.70;;;;;;;15.70;47.93;99188.77;106027;1274;111082;-70
2022/06/04 00:53:48;;;;;;;23.20;12.00;;;;;;;15.69;48.04;99186.16;106048;1277;97896;-69
2022/06/04 00:56:21;;;;;;;26.70;12.40;;;;;;;15.67;48.04;99185.40;106085;1274;107782;-69
2022/06/04 00:59:18;;;;;;;22.80;11.50;;;;;;;15.65;48.22;99187.20;106094;1274;95286;-66
2022/06/04 01:02:02;;;;;;;22.20;11.40;;;;;;;15.64;48.29;99185.20;106078;1277;97936;-71
2022/06/04 01:05:02;;;;;;;25.40;11.90;;;;;;;15.61;48.37;99182.40;106028;1276;111319;-70
2022/06/04 01:07:49;;;;;;;25.40;12.50;;;;;;;15.57;48.53;99178.79;105775;1274;97899;-69
2022/06/04 01:11:07;;;;;;;27.50;13.00;;;;;;;15.57;48.63;99173.83;105870;1274;107776;-71
2022/06/04 01:14:02;;;;;;;23.00;10.70;;;;;;;15.55;48.71;99170.43;105814;1274;97949;-69
2022/06/04 01:17:08;;;;;;;23.00;11.80;;;;;;;15.54;48.85;99165.55;106006;1274;97876;-66
2022/06/04 01:19:52;;;;;;;22.00;10.90;;;;;;;15.50;48.88;99164.41;105810;1276;112083;-69
2022/06/04 01:22:49;;;;;;;22.80;10.70;;;;;;;15.47;48.90;99162.95;105996;1276;97883;-68
2022/06/04 01:25:20;;;;;;;29.40;11.10;;;;;;;15.43;49.01;99162.56;105898;1276;107697;-68
2022/06/04 01:27:58;;;;;;;24.40;11.90;;;;;;;15.40;49.03;99156.23;105913;1277;97988;-69
2022/06/04 01:30:50;;;;;;;25.20;12.00;;;;;;;15.38;49.18;99152.64;105872;1276;95230;-69
2022/06/04 01:33:44;;;;;;;24.90;12.50;;;;;;;15.35;49.22;99150.81;106122;1274;111956;-68
2022/06/04 01:36:27;;;;;;;25.70;11.90;;;;;;;15.33;49.30;99142.60;106118;1274;97634;-67
2022/06/04 01:39:06;;;;;;;24.40;11.80;;;;;;;15.30;49.42;99143.73;106084;1274;107295;-70
2022/06/04 01:41:43;;;;;;;24.90;12.00;;;;;;;15.26;49.46;99145.58;106094;1277;96682;-71
2022/06/04 01:44:29;;;;;;;25.50;13.10;;;;;;;15.23;49.66;99142.92;105947;1276;97840;-71
2022/06/04 01:47:04;;;;;;;28.10;12.00;;;;;;;15.22;49.58;99139.52;106012;1273;111357;-69
2022/06/04 01:49:43;;;;;;;25.70;12.40;;;;;;;15.20;49.72;99133.24;105975;1277;96985;-69
2022/06/04 01:52:37;;;;;;;21.60;10.60;;;;;;;15.18;49.80;99131.04;105939;1277;107790;-72
2022/06/04 01:55:17;;;;;;;27.00;12.20;;;;;;;15.15;49.95;99135.44;105966;1277;97973;-71
2022/06/04 01:58:00;;;;;;;23.20;11.60;;;;;;;15.14;49.96;99133.40;106017;1276;97886;-71
2022/06/04 02:00:38;;;;;;;27.40;13.10;;;;;;;15.13;50.04;99131.54;106080;1276;111413;-69
2022/06/04 02:03:18;;;;;;;26.90;12.40;;;;;;;15.11;50.09;99132.04;105819;1277;97893;-69
2022/06/04 02:06:00;;;;;;;27.10;13.10;;;;;;;15.10;50.27;99125.36;105845;1276;107583;-71
2022/06/04 02:08:43;;;;;;;26.30;12.30;;;;;;;15.10;50.29;99118.98;105937;1276;97888;-70
2022/06/04 02:11:18;;;;;;;25.70;13.30;;;;;;;15.09;50.43;99121.91;106064;1274;95195;-68
2022/06/04 02:13:49;;;;;;;25.50;12.60;;;;;;;15.08;50.45;99119.87;106132;1274;110360;-68
2022/06/04 02:16:21;;;;;;;28.50;13.10;;;;;;;15.08;50.50;99119.81;106129;1274;98429;-68
2022/06/04 02:18:51;;;;;;;25.70;11.80;;;;;;;15.08;50.63;99114.65;105973;1276;108459;-69
2022/06/04 02:21:23;;;;;;;30.00;14.20;;;;;;;15.09;50.74;99120.65;106010;1276;96008;-68
2022/06/04 02:23:51;;;;;;;30.20;14.00;;;;;;;15.09;50.82;99114.22;105867;1274;98044;-67
2022/06/04 02:26:23;;;;;;;27.80;13.40;;;;;;;15.09;50.86;99119.92;106007;1274;111970;-67
2022/06/04 02:28:58;;;;;;;27.30;12.80;;;;;;;15.10;51.01;99124.15;106030;1274;97886;-68
2022/06/04 02:31:37;;;;;;;27.80;13.70;;;;;;;15.08;51.14;99124.29;106069;1274;107703;-68
2022/06/04 02:34:23;;;;;;;29.80;13.60;;;;;;;15.06;51.17;99124.30;105996;1274;97968;-68
2022/06/04 02:37:20;;;;;;;29.80;13.50;;;;;;;15.06;51.26;99119.73;106107;1274;97995;-69
2022/06/04 02:40:28;;;;;;;29.70;14.20;;;;;;;15.04;51.35;99121.49;106014;1274;111928;-68
2022/06/04 02:43:31;;;;;;;28.20;14.00;;;;;;;15.04;51.61;99109.83;105866;1276;97913;-70
2022/06/04 02:46:10;;;;;;;28.30;13.80;;;;;;;15.08;51.65;99105.17;106032;1276;107478;-70
2022/06/04 02:48:44;;;;;;;27.50;13.70;;;;;;;15.12;51.71;99103.05;106056;1274;97779;-69
2022/06/04 02:51:22;;;;;;;26.50;13.20;;;;;;;15.15;51.77;99109.85;106021;1274;97982;-70
2022/06/04 02:53:50;;;;;;;25.90;13.20;;;;;;;15.20;51.86;99107.55;105935;1274;111418;-67
2022/06/04 02:56:26;;;;;;;24.50;12.60;;;;;;;15.22;51.93;99104.08;105886;1274;95412;-71
2022/06/04 02:58:59;;;;;;;23.80;13.30;;;;;;;15.26;51.98;99098.92;105941;1274;107745;-70
2022/06/04 03:01:29;;;;;;;25.20;14.50;;;;;;;15.29;52.08;99094.91;105910;1274;96453;-69
2022/06/04 03:03:57;;;;;;;25.30;12.50;;;;;;;15.32;52.09;99098.52;105948;1274;98675;-69
2022/06/04 03:06:30;;;;;;;24.10;12.90;;;;;;;15.35;52.20;99099.88;106033;1274;111715;-69
2022/06/04 03:09:06;;;;;;;26.70;13.20;;;;;;;15.38;52.32;99100.92;106010;1274;97883;-67
2022/06/04 03:11:43;;;;;;;25.50;13.30;;;;;;;15.39;52.36;99101.84;105925;1274;107778;-68
2022/06/04 03:14:12;;;;;;;27.80;13.50;;;;;;;15.42;52.39;99103.75;105941;1274;97989;-69
2022/06/04 03:16:43;;;;;;;28.40;12.80;;;;;;;15.43;52.45;99103.62;106047;1274;97873;-68
2022/06/04 03:19:11;;;;;;;24.90;12.10;;;;;;;15.45;52.55;99105.21;106017;1274;110270;-68
2022/06/04 03:21:42;;;;;;;24.30;12.20;;;;;;;15.48;52.61;99107.83;106103;1274;97902;-69
2022/06/04 03:24:13;;;;;;;29.60;13.20;;;;;;;15.51;52.62;99103.46;105893;1274;108370;-69
2022/06/04 03:26:42;;;;;;;25.80;13.00;;;;;;;15.53;52.68;99110.41;105858;1275;97986;-68
2022/06/04 03:29:11;;;;;;;25.30;12.90;;;;;;;15.54;52.81;99108.65;105926;1274;97884;-68
2022/06/04 03:31:40;;;;;;;28.10;14.50;;;;;;;15.57;52.75;99114.64;105905;1274;112104;-67
2022/06/04 03:34:09;;;;;;;27.20;14.00;;;;;;;15.58;52.87;99108.25;105984;1274;96483;-68
2022/06/04 03:36:41;;;;;;;32.00;15.10;;;;;;;15.60;52.96;99104.50;105884;1274;108234;-69
2022/06/04 03:39:11;;;;;;;30.10;15.60;;;;;;;15.61;52.95;99098.69;105672;1277;96342;-68
2022/06/04 03:41:40;;;;;;;27.50;14.40;;;;;;;15.63;53.03;99093.39;105933;1274;97952;-69
2022/06/04 03:44:09;;;;;;;29.00;15.50;;;;;;;15.64;53.01;99087.58;105922;1274;112397;-69
2022/06/04 03:46:37;;;;;;;30.10;15.30;;;;;;;15.66;53.12;99083.14;106024;1274;97855;-68
2022/06/04 03:49:06;;;;;;;31.70;15.70;;;;;;;15.67;53.22;99086.24;104473;1276;1932527;-68
2022/06/04 03:51:37;;;;;;;30.30;15.10;;;;;;;15.68;53.30;99085.05;105903;1274;97947;-67
2022/06/04 03:54:07;;;;;;;29.60;16.20;;;;;;;15.70;53.34;99082.19;105953;1277;97899;-68
2022/06/04 03:56:35;;;;;;;30.90;17.30;;;;;;;15.71;53.41;99079.89;105881;1275;111669;-69
2022/06/04 03:59:06;;;;;;;27.20;15.30;;;;;;;15.73;53.49;99072.42;105784;1274;98943;-68
2022/06/04 04:01:34;;;;;;;23.80;13.20;;;;;;;15.75;53.53;99066.88;105867;1274;108887;-66
2022/06/04 04:04:02;;;;;;;22.10;9.80;;;;;;;15.77;53.56;99063.49;105903;1274;95284;-70
2022/06/04 04:06:34;;;;;;;19.50;8.70;;;;;;;15.78;53.86;99061.09;105933;1277;96659;-68
2022/06/04 04:09:09;;;;;;;20.40;9.80;;;;;;;15.77;53.99;99057.26;105881;1274;112279;-69
2022/06/04 04:11:37;;;;;;;20.00;9.60;;;;;;;15.79;53.99;99055.97;105947;1274;98772;-68
2022/06/04 04:14:07;;;;;;;18.40;9.40;;;;;;;15.83;54.00;99056.45;105961;1274;108418;-69
2022/06/04 04:16:36;;;;;;;19.30;9.70;;;;;;;15.88;54.05;99056.20;105899;1275;97888;-69
2022/06/04 04:19:04;;;;;;;21.00;9.40;;;;;;;15.90;54.24;99051.00;105902;1273;96335;-69
2022/06/04 04:21:40;;;;;;;24.40;10.50;;;;;;;15.91;54.05;99051.27;105865;1274;112061;-68
2022/06/04 04:24:07;;;;;;;21.40;10.40;;;;;;;15.91;54.11;99051.21;105866;1274;96140;-68
2022/06/04 04:26:36;;;;;;;21.80;10.30;;;;;;;15.92;54.55;99049.36;105593;1276;108265;-69
2022/06/04 04:29:04;;;;;;;20.70;11.60;;;;;;;15.93;54.34;99053.05;105962;1276;97942;-68
2022/06/04 04:31:35;;;;;;;22.50;10.50;;;;;;;15.97;54.52;99048.99;105881;1275;97630;-68
2022/06/04 04:34:05;;;;;;;18.00;9.30;;;;;;;16.01;54.64;99050.52;105861;1274;111987;-68
2022/06/04 04:36:34;;;;;;;18.20;9.20;;;;;;;16.05;54.58;99047.80;105846;1274;97889;-68
2022/06/04 04:39:02;;;;;;;22.90;9.00;;;;;;;16.12;54.78;99052.38;105847;1274;108399;-68
2022/06/04 04:41:30;;;;;;;16.80;8.90;;;;;;;16.18;54.78;99049.39;105842;1274;98042;-69
2022/06/04 04:44:00;;;;;;;17.80;8.70;;;;;;;16.26;55.13;99055.33;105962;1276;98678;-69
2022/06/04 04:46:27;;;;;;;18.70;8.50;;;;;;;16.32;55.02;99050.23;106080;1277;112184;-68
2022/06/04 04:48:58;;;;;;;19.20;8.60;;;;;;;16.40;54.92;99045.36;105972;1274;97952;-67
2022/06/04 04:51:30;;;;;;;20.30;8.90;;;;;;;16.49;55.15;99049.33;105949;1274;108279;-67
2022/06/04 04:53:59;;;;;;;19.50;8.70;;;;;;;16.58;55.32;99048.05;105933;1274;95373;-67
2022/06/04 04:56:26;;;;;;;20.30;11.10;;;;;;;16.67;55.44;99048.85;105878;1276;96479;-68
2022/06/04 04:58:54;;;;;;;24.70;11.70;;;;;;;16.75;55.47;99040.19;105959;1274;110992;-66
2022/06/04 05:01:27;;;;;;;28.50;13.30;;;;;;;16.83;55.46;99042.64;105961;1274;97724;-69
2022/06/04 05:03:56;;;;;;;26.20;13.30;;;;;;;16.90;55.42;99047.98;105900;1274;108247;-68
2022/06/04 05:06:31;;;;;;;29.60;13.10;;;;;;;16.96;55.58;99039.88;105869;1274;96386;-68
2022/06/04 05:09:00;;;;;;;23.40;11.10;;;;;;;17.02;55.49;99041.33;105866;1277;97909;-67
2022/06/04 05:11:32;;;;;;;22.90;12.10;;;;;;;17.06;55.41;99046.08;105843;1277;111855;-68
2022/06/04 05:14:03;;;;;;;22.20;12.40;;;;;;;17.11;55.57;99048.27;106087;1274;97905;-69
2022/06/04 05:16:35;;;;;;;23.20;12.30;;;;;;;17.17;55.57;99048.98;105949;1277;108344;-69
2022/06/04 05:19:05;;;;;;;27.10;12.60;;;;;;;17.20;55.48;99050.48;105881;1274;97839;-68
2022/06/04 05:21:40;;;;;;;21.30;11.40;;;;;;;17.23;55.51;99051.59;105830;1277;97785;-69
2022/06/04 05:24:26;;;;;;;23.30;12.00;;;;;;;17.26;55.58;99052.52;105887;1274;111747;-68
2022/06/04 05:26:58;;;;;;;23.40;11.70;;;;;;;17.29;55.65;99052.42;105968;1274;97866;-68
2022/06/04 05:29:28;;;;;;;23.60;13.00;;;;;;;17.32;55.84;99052.67;105928;1274;107736;-69
2022/06/04 05:31:58;;;;;;;23.50;12.00;;;;;;;17.35;55.72;99049.16;105951;1274;96431;-68
2022/06/04 05:34:28;;;;;;;22.90;12.60;;;;;;;17.36;55.89;99044.30;105990;1274;98006;-68
2022/06/04 05:36:56;;;;;;;28.10;12.20;;;;;;;17.39;55.87;99048.56;106035;1274;111686;-68
2022/06/04 05:39:29;;;;;;;23.00;12.60;;;;;;;17.40;55.86;99049.11;106091;1274;97953;-68
2022/06/04 05:42:03;;;;;;;31.80;12.00;;;;;;;17.43;56.07;99047.83;106018;1274;107821;-69
2022/06/04 05:44:33;;;;;;;22.80;12.20;;;;;;;17.45;56.01;99048.27;106029;1275;96193;-67
2022/06/04 05:47:04;;;;;;;20.80;11.30;;;;;;;17.47;55.87;99049.30;106018;1274;96235;-69
2022/06/04 05:49:33;;;;;;;22.40;11.50;;;;;;;17.47;55.89;99046.34;106007;1275;112784;-69
2022/06/04 05:52:02;;;;;;;23.10;11.50;;;;;;;17.44;55.84;99046.21;106041;1274;97959;-69
2022/06/04 05:54:30;;;;;;;20.50;10.90;;;;;;;17.43;55.97;99047.92;106081;1274;108737;-69
2022/06/04 05:57:00;;;;;;;25.40;11.70;;;;;;;17.43;55.95;99044.92;105982;1277;96422;-69
2022/06/04 05:59:31;;;;;;;21.60;10.60;;;;;;;17.44;56.11;99044.80;106032;1275;97952;-71
2022/06/04 06:01:58;;;;;;;22.40;11.80;;;;;;;17.46;56.17;99048.35;106032;1274;111443;-69
2022/06/04 06:04:26;;;;;;;23.80;11.30;;;;;;;17.48;55.98;99050.85;105998;1274;96310;-69
2022/06/04 06:06:59;;;;;;;21.10;10.40;;;;;;;17.51;56.21;99051.77;106117;1274;107573;-70
2022/06/04 06:09:29;;;;;;;21.40;10.80;;;;;;;17.55;56.35;99049.17;106105;1274;97908;-71
2022/06/04 06:12:00;;;;;;;22.90;10.40;;;;;;;17.61;56.55;99047.20;106052;1274;97837;-69
2022/06/04 06:14:28;;;;;;;20.10;10.70;;;;;;;17.67;56.54;99046.34;106006;1274;111309;-70
2022/06/04 06:16:56;;;;;;;19.80;10.80;;;;;;;17.74;56.38;99046.98;105996;1274;97996;-69
2022/06/04 06:19:24;;;;;;;21.90;11.60;;;;;;;17.80;56.55;99044.57;106069;1274;107822;-69
2022/06/04 06:21:52;;;;;;;20.80;10.10;;;;;;;17.87;56.77;99041.71;106049;1277;97871;-70
2022/06/04 06:24:21;;;;;;;23.90;13.80;;;;;;;17.93;56.83;99041.20;106009;1275;96410;-69
2022/06/04 06:26:56;;;;;;;25.40;12.30;;;;;;;17.99;56.52;99044.39;106056;1274;111578;-70
2022/06/04 06:29:29;;;;;;;22.80;11.60;;;;;;;18.05;56.80;99041.87;106085;1274;97726;-68
2022/06/04 06:32:03;;;;;;;19.20;9.90;;;;;;;18.10;56.90;99041.52;105887;1274;107771;-70
2022/06/04 06:34:31;;;;;;;23.20;11.30;;;;;;;18.15;56.80;99040.41;105751;1277;96271;-71
2022/06/04 06:36:58;;;;;;;20.20;11.20;;;;;;;18.19;56.74;99046.61;105901;1274;97886;-69
2022/06/04 06:39:26;;;;;;;30.10;11.90;;;;;;;18.25;56.96;99048.95;105918;1274;111409;-69
2022/06/04 06:41:54;;;;;;;22.40;11.50;;;;;;;18.29;56.96;99047.91;106007;1274;97901;-70
2022/06/04 06:44:23;;;;;;;22.30;11.40;;;;;;;18.34;57.04;99046.55;105991;1274;107785;-72
2022/06/04 06:46:55;;;;;;;24.10;10.90;;;;;;;18.38;57.00;99045.38;105910;1274;97875;-70
2022/06/04 06:49:30;;;;;;;22.70;11.90;;;;;;;18.42;57.15;99047.64;105935;1275;95275;-73
2022/06/04 06:52:00;;;;;;;20.40;10.50;;;;;;;18.45;57.24;99053.02;105942;1277;111398;-70
2022/06/04 06:54:37;;;;;;;19.90;10.00;;;;;;;18.48;57.07;99048.45;105967;1274;97957;-70
2022/06/04 06:57:10;;;;;;;20.30;9.60;;;;;;;18.51;57.11;99050.54;105903;1274;107769;-69
2022/06/04 06:59:43;;;;;;;20.10;9.30;;;;;;;18.51;57.07;99048.69;105903;1276;96664;-69
2022/06/04 07:02:12;;;;;;;17.80;8.50;;;;;;;18.49;56.97;99048.79;105866;1276;96478;-71
2022/06/04 07:04:41;;;;;;;19.50;8.40;;;;;;;18.47;57.09;99050.91;105725;1275;111820;-71
2022/06/04 07:07:09;;;;;;;18.40;8.30;;;;;;;18.48;57.03;99051.75;105772;1274;98035;-69
2022/06/04 07:09:40;;;;;;;16.10;7.40;;;;;;;18.50;57.20;99052.80;105911;1274;106725;-69
2022/06/04 07:12:13;;;;;;;18.00;7.30;;;;;;;18.49;57.09;99059.83;105971;1276;97848;-69
2022/06/04 07:14:40;;;;;;;15.00;6.90;;;;;;;18.50;57.20;99061.92;106053;1277;95356;-69
2022/06/04 07:17:12;;;;;;;14.80;7.00;;;;;;;18.51;57.32;99070.05;106095;1274;111049;-68
2022/06/04 07:19:40;;;;;;;14.10;6.80;;;;;;;18.53;57.29;99075.90;105942;1277;98021;-69
2022/06/04 07:22:12;;;;;;;15.60;7.00;;;;;;;18.56;57.36;99077.18;105934;1275;108247;-69
2022/06/04 07:24:43;;;;;;;22.00;8.40;;;;;;;18.59;57.32;99077.63;105924;1274;97854;-69
2022/06/04 07:27:11;;;;;;;16.10;7.20;;;;;;;18.61;57.30;99082.96;105981;1274;97891;-70
2022/06/04 07:29:41;;;;;;;14.20;7.40;;;;;;;18.62;57.43;99086.13;105937;1274;109937;-71
2022/06/04 07:32:10;;;;;;;12.40;6.60;;;;;;;18.62;57.36;99090.46;107431;1274;97894;-69
2022/06/04 07:34:41;;;;;;;14.80;6.90;;;;;;;18.60;57.60;99095.67;105937;1274;107784;-69
2022/06/04 07:37:12;;;;;;;13.40;7.10;;;;;;;18.61;57.69;99094.54;106716;1276;97399;-70
2022/06/04 07:39:39;;;;;;;14.70;7.30;;;;;;;18.63;57.62;99096.29;105986;1277;97380;-69
2022/06/04 07:42:07;;;;;;;15.00;6.60;;;;;;;18.65;57.40;99099.06;105963;1274;111409;-69
2022/06/04 07:44:35;;;;;;;17.80;6.80;;;;;;;18.69;57.64;99105.38;105983;1274;98014;-68
2022/06/04 07:47:03;;;;;;;19.30;7.50;;;;;;;18.72;57.47;99107.73;107770;1274;107781;-68
2022/06/04 07:49:31;;;;;;;15.60;6.70;;;;;;;18.76;57.73;99109.77;106437;1274;97968;-68
2022/06/04 07:51:59;;;;;;;12.80;6.50;;;;;;;18.82;57.68;99107.00;105882;1275;97850;-68
2022/06/04 07:54:28;;;;;;;12.30;5.70;;;;;;;18.86;57.50;99106.38;107283;1274;111957;-71
2022/06/04 07:56:56;;;;;;;11.50;5.00;;;;;;;18.90;57.64;99110.64;106540;1274;97864;-69
2022/06/04 07:59:24;;;;;;;9.60;4.80;;;;;;;18.92;57.66;99113.33;105882;1274;106326;-71
2022/06/04 08:01:54;;;;;;;11.90;4.90;;;;;;;18.93;57.67;99109.80;106000;1274;97985;-71
2022/06/04 08:04:24;;;;;;;11.30;4.90;;;;;;;18.93;57.72;99110.00;106009;1274;97940;-70
2022/06/04 08:06:52;;;;;;;8.40;4.90;;;;;;;18.93;57.70;99107.85;106015;1275;111522;-68
2022/06/04 08:09:20;;;;;;;9.40;5.00;;;;;;;18.90;57.82;99110.96;106021;1277;96740;-69
2022/06/04 08:11:48;;;;;;;10.30;5.50;;;;;;;18.89;58.02;99114.88;106052;1274;107690;-71
2022/06/04 08:14:25;;;;;;;12.30;5.20;;;;;;;18.86;57.89;99117.02;106066;1274;97976;-70
2022/06/04 08:16:59;;;;;;;9.50;5.00;;;;;;;18.82;57.94;99120.88;106039;1274;97941;-70
2022/06/04 08:19:30;;;;;;;9.70;5.10;;;;;;;18.78;57.99;99126.14;106035;1274;111573;-71
2022/06/04 08:21:58;;;;;;;12.70;5.30;;;;;;;18.76;58.19;99127.18;105977;1277;98000;-69
2022/06/04 08:24:28;;;;;;;12.20;5.60;;;;;;;18.75;58.42;99129.30;105929;1274;107462;-69
2022/06/04 08:26:59;;;;;;;11.30;5.40;;;;;;;18.73;58.33;99132.01;106014;1274;97969;-69
2022/06/04 08:29:33;;;;;;;12.50;5.20;;;;;;;18.73;58.38;99137.20;106070;1274;97740;-70
2022/06/04 08:32:03;;;;;;;12.80;5.60;;;;;;;18.74;58.54;99140.36;106080;1274;111294;-69
2022/06/04 08:34:34;;;;;;;13.50;6.50;;;;;;;18.74;58.56;99142.55;106078;1274;97892;-69
2022/06/04 08:37:02;;;;;;;15.80;6.70;;;;;;;18.74;58.68;99152.77;105954;1277;106182;-68
2022/06/04 08:39:30;;;;;;;20.10;9.40;;;;;;;18.73;58.68;99151.10;105918;1276;97822;-69
2022/06/04 08:42:09;;;;;;;20.60;9.30;;;;;;;18.73;58.75;99155.75;106073;1276;97972;-72
2022/06/04 08:44:54;;;;;;;20.00;8.80;;;;;;;18.73;58.75;99156.83;106042;1276;111361;-69
2022/06/04 08:47:30;;;;;;;23.10;10.70;;;;;;;18.73;58.96;99156.09;105933;1277;97895;-68
2022/06/04 08:50:02;;;;;;;24.30;11.50;;;;;;;18.74;58.89;99155.79;106553;1274;107866;-67
2022/06/04 08:52:44;;;;;;;26.70;11.50;;;;;;;18.76;59.13;99158.44;106009;1274;97972;-67
2022/06/04 08:58:25;;;;;;;20.00;8.40;;;;;;;18.80;59.04;99154.63;106099;1275;111256;-70
2022/06/04 09:01:07;;;;;;;19.20;8.90;;;;;;;18.83;59.28;99152.55;106028;1274;97872;-69
2022/06/04 09:04:17;;;;;;;14.70;7.10;;;;;;;18.85;59.15;99149.98;105950;1275;107434;-69
2022/06/04 09:07:03;;;;;;;16.40;8.40;;;;;;;18.89;59.39;99148.11;106009;1274;97979;-70
2022/06/04 09:09:50;;;;;;;18.40;8.00;;;;;;;18.94;59.46;99143.13;105980;1274;97947;-69
2022/06/04 09:12:54;;;;;;;15.90;7.40;;;;;;;19.00;59.36;99143.73;105977;1274;111379;-70
2022/06/04 09:15:29;;;;;;;13.80;7.20;;;;;;;19.07;59.75;99146.85;106000;1274;97998;-71
2022/06/04 09:18:02;;;;;;;29.90;16.40;;;;;;;19.13;59.57;99149.93;106008;1275;107851;-73
2022/06/04 09:20:54;;;;;;;28.50;15.90;;;;;;;19.20;59.49;99144.15;106000;1276;99086;-71
2022/06/04 09:23:27;;;;;;;16.20;8.50;;;;;;;19.27;59.56;99139.84;106081;1275;97983;-72
2022/06/04 09:26:15;;;;;;;15.80;7.10;;;;;;;19.32;59.67;99142.65;106002;1276;111400;-70
2022/06/04 09:29:07;;;;;;;11.60;6.20;;;;;;;19.37;59.61;99143.93;106134;1275;97959;-72
2022/06/04 09:32:12;;;;;;;13.60;6.50;;;;;;;19.41;59.71;99150.41;106073;1275;109187;-69
2022/06/04 09:34:54;;;;;;;13.20;6.60;;;;;;;19.43;59.72;99153.35;106038;1275;97944;-69
2022/06/04 09:37:22;;;;;;;12.80;6.20;;;;;;;19.46;59.68;99155.72;106014;1277;95207;-69
2022/06/04 09:40:06;;;;;;;11.80;5.70;;;;;;;19.48;59.68;99158.25;106032;1274;111285;-69
2022/06/04 09:42:34;;;;;;;11.80;6.40;;;;;;;19.49;59.68;99154.86;106111;1277;95218;-69
2022/06/04 09:45:06;;;;;;;12.30;6.20;;;;;;;19.51;59.69;99147.53;106077;1275;107760;-70
2022/06/04 09:47:40;;;;;;;14.00;6.60;;;;;;;19.52;59.73;99149.75;105977;1277;97861;-72
2022/06/04 09:50:37;;;;;;;12.50;6.40;;;;;;;19.53;59.83;99157.14;106124;1277;97949;-69
2022/06/04 09:53:25;;;;;;;15.50;7.30;;;;;;;19.57;59.94;99150.12;106020;1277;111374;-70
2022/06/04 09:55:54;;;;;;;14.20;7.20;;;;;;;19.61;59.97;99148.40;105989;1275;96277;-68
2022/06/04 09:58:31;;;;;;;16.40;6.90;;;;;;;19.64;60.02;99152.36;106015;1274;108497;-69
2022/06/04 10:01:14;;;;;;;12.80;7.00;;;;;;;19.69;60.04;99146.86;106015;1277;97889;-70
2022/06/04 10:03:45;;;;;;;14.50;7.40;;;;;;;19.76;60.13;99149.28;106035;1274;95287;-71
2022/06/04 10:06:26;;;;;;;14.10;7.40;;;;;;;19.84;60.27;99146.07;105949;1276;110032;-69
2022/06/04 10:11:54;;;;;;;13.80;7.70;;;;;;;19.93;60.31;99150.98;106031;1277;107517;-68
2022/06/04 10:14:31;;;;;;;14.70;6.90;;;;;;;19.97;60.33;99157.38;105952;1276;97929;-68
2022/06/04 10:17:01;;;;;;;14.50;8.00;;;;;;;19.99;60.33;99156.89;106169;1276;97883;-67
2022/06/04 10:19:30;;;;;;;15.30;7.80;;;;;;;20.01;60.39;99154.69;106037;1277;111926;-68
2022/06/04 10:22:11;;;;;;;18.00;8.90;;;;;;;20.02;60.50;99155.05;106077;1275;97880;-69
2022/06/04 10:24:56;;;;;;;18.30;9.30;;;;;;;20.04;60.53;99154.64;106014;1274;107849;-67
2022/06/04 10:27:32;;;;;;;16.90;9.10;;;;;;;20.05;60.62;99149.27;106005;1277;96412;-68
2022/06/04 10:30:17;;;;;;;17.80;9.50;;;;;;;20.07;60.66;99144.63;105964;1275;98582;-71
2022/06/04 10:32:59;;;;;;;17.40;8.90;;;;;;;20.08;60.67;99142.56;105989;1274;111406;-71
2022/06/04 10:35:56;;;;;;;18.30;10.00;;;;;;;20.07;60.75;99142.42;106021;1276;97860;-71
2022/06/04 10:38:49;;;;;;;17.60;9.50;;;;;;;20.08;60.78;99141.65;105952;1277;106316;-72
2022/06/04 10:41:41;;;;;;;26.00;16.90;;;;;;;20.09;60.82;99138.14;105948;1277;97973;-72
2022/06/04 10:44:32;;;;;;;24.60;16.40;;;;;;;20.09;60.90;99138.52;105924;1277;97860;-71
2022/06/04 10:47:20;;;;;;;19.70;10.40;;;;;;;20.08;60.84;99131.90;105940;1275;110616;-72
2022/06/04 10:50:13;;;;;;;16.90;9.40;;;;;;;20.09;60.97;99130.95;106001;1275;97902;-71
2022/06/04 10:52:50;;;;;;;18.50;10.20;;;;;;;20.09;61.04;99130.89;105937;1277;106729;-69
2022/06/04 10:55:44;;;;;;;19.60;10.20;;;;;;;20.09;61.00;99123.73;106003;1275;97777;-71
2022/06/04 10:58:43;;;;;;;16.70;9.40;;;;;;;20.06;61.03;99128.12;106040;1275;98446;-71
2022/06/04 11:01:34;;;;;;;17.40;9.50;;;;;;;20.05;61.15;99122.17;105939;1274;112501;-67
2022/06/04 11:04:21;;;;;;;15.90;8.50;;;;;;;20.04;61.16;99115.60;105961;1275;95408;-68
2022/06/04 11:06:58;;;;;;;17.20;9.60;;;;;;;20.05;61.26;99111.89;105935;1274;108465;-69
2022/06/04 11:09:40;;;;;;;15.20;7.90;;;;;;;20.06;61.31;99109.05;106051;1274;97975;-67
2022/06/04 11:12:29;;;;;;;18.90;9.10;;;;;;;20.10;61.35;99112.09;106019;1274;98005;-66
2022/06/04 11:15:06;;;;;;;17.90;9.10;;;;;;;20.15;61.39;99116.40;105938;1274;111802;-66
2022/06/04 11:17:56;;;;;;;17.00;8.70;;;;;;;20.15;61.36;99113.86;106097;1274;97989;-67
2022/06/04 11:20:37;;;;;;;16.00;8.50;;;;;;;20.10;61.35;99111.34;106044;1274;107671;-66
2022/06/04 11:23:53;;;;;;;18.80;8.80;;;;;;;20.11;61.42;99115.39;105975;1274;97889;-67
2022/06/04 11:26:31;;;;;;;19.10;9.10;;;;;;;20.16;61.50;99111.84;105948;1274;97975;-68
2022/06/04 11:29:02;;;;;;;17.40;8.70;;;;;;;20.17;61.51;99107.11;106111;1275;111487;-66
2022/06/04 11:31:30;;;;;;;17.60;8.50;;;;;;;20.20;61.47;99103.08;105992;1274;96896;-69
2022/06/04 11:34:22;;;;;;;18.50;9.20;;;;;;;20.25;61.55;99101.24;106108;1274;107898;-70
2022/06/04 11:37:37;;;;;;;20.20;10.00;;;;;;;20.33;61.51;99095.08;105993;1275;97623;-69
2022/06/04 11:40:14;;;;;;;18.40;9.90;;;;;;;20.49;61.71;99092.58;105775;1275;95304;-71
2022/06/04 11:43:05;;;;;;;19.10;10.10;;;;;;;20.70;61.76;99085.16;106054;1275;111833;-67
2022/06/04 11:46:04;;;;;;;19.50;10.60;;;;;;;20.92;61.93;99091.71;105967;1275;97772;-69
2022/06/04 11:48:38;;;;;;;18.30;9.70;;;;;;;21.14;61.86;99093.13;105879;1276;108230;-67
2022/06/04 11:51:28;;;;;;;19.10;10.10;;;;;;;21.27;61.83;99091.40;105922;1274;97957;-68
2022/06/04 11:54:26;;;;;;;16.30;8.60;;;;;;;21.37;61.92;99091.58;105983;1274;97856;-68
2022/06/04 11:57:23;;;;;;;18.60;9.40;;;;;;;21.40;61.57;99091.52;105957;1274;111954;-70
2022/06/04 11:59:53;;;;;;;18.00;9.80;;;;;;;21.40;61.72;99089.55;106042;1275;97898;-69
2022/06/04 12:02:36;;;;;;;19.10;9.00;;;;;;;21.39;61.62;99090.35;106103;1274;107825;-67